Time;durP1;ratioP1;P1;durP2;ratioP2;P2;SDS_P1;SDS_P2;PMS_P1;PMS_P2;Temp;Humidity;BMP_temperature;BMP_pressure;BME280_temperature;BME280_humidity;BME280_pressure;Samples;Min_cycle;Max_cycle;Signal;HPM_P1;HPM_P2
2022/06/03 00:01:08;;;;;;;9.30;5.80;;;;;;;15.17;65.49;102144.38;4961232;28;20303;-66
2022/06/03 00:04:22;;;;;;;8.68;6.35;;;;;;;15.10;65.98;102147.78;4964838;28;20050;-65
2022/06/03 00:07:25;;;;;;;7.70;5.60;;;;;;;15.11;65.84;102144.28;4942791;28;20626;-66
2022/06/03 00:09:51;;;;;;;8.45;6.05;;;;;;;15.13;65.66;102149.53;4948761;28;20054;-65
2022/06/03 00:13:01;;;;;;;7.13;5.40;;;;;;;15.25;65.14;102142.72;4955435;28;20133;-66
2022/06/03 00:15:38;;;;;;;7.72;5.65;;;;;;;15.19;65.46;102140.00;4887468;28;20954;-65
2022/06/03 00:18:09;;;;;;;9.40;5.60;;;;;;;15.08;65.96;102138.97;4869032;29;20051;-67
2022/06/03 00:20:50;;;;;;;6.75;5.40;;;;;;;15.07;65.56;102131.06;4930608;28;20471;-66
2022/06/03 00:23:28;;;;;;;7.45;5.20;;;;;;;15.23;65.05;102133.97;4951053;28;20054;-66
2022/06/03 00:26:12;;;;;;;7.20;5.10;;;;;;;15.36;64.80;102135.03;4962912;28;20121;-65
2022/06/03 00:28:53;;;;;;;7.68;5.30;;;;;;;15.31;64.71;102137.56;4959055;28;20757;-67
2022/06/03 00:31:41;;;;;;;8.18;5.03;;;;;;;15.30;65.00;102135.81;4961334;28;20479;-67
2022/06/03 00:34:32;;;;;;;8.20;4.85;;;;;;;15.42;64.13;102133.38;4936934;28;20671;-66
2022/06/03 00:37:31;;;;;;;7.38;5.15;;;;;;;15.56;63.54;102133.56;4957978;28;20046;-65
2022/06/03 00:40:12;;;;;;;6.20;4.63;;;;;;;15.64;63.13;102131.03;4949050;28;20034;-65
2022/06/03 00:42:56;;;;;;;6.70;4.70;;;;;;;15.66;63.07;102138.09;4967939;28;20054;-66
2022/06/03 00:45:46;;;;;;;7.03;4.80;;;;;;;15.60;62.97;102132.75;4957789;28;20052;-66
2022/06/03 00:48:30;;;;;;;7.30;5.13;;;;;;;15.56;62.97;102130.03;4953615;28;20222;-66
2022/06/03 00:51:14;;;;;;;7.13;4.60;;;;;;;15.72;62.23;102124.13;4964256;28;20136;-66
2022/06/03 00:54:17;;;;;;;10.13;4.88;;;;;;;15.61;62.22;102126.63;4955276;28;20041;-65
2022/06/03 00:57:07;;;;;;;6.55;4.45;;;;;;;15.68;62.24;102127.56;4957751;28;20501;-66
2022/06/03 01:00:18;;;;;;;8.23;4.60;;;;;;;15.78;61.40;102126.84;4964366;28;20046;-65
2022/06/03 01:03:03;;;;;;;6.53;4.68;;;;;;;15.62;62.12;102122.22;4903717;28;22059;-66
2022/06/03 01:05:34;;;;;;;7.25;4.53;;;;;;;15.62;62.15;102123.13;4938527;28;20260;-65
2022/06/03 01:08:05;;;;;;;7.00;4.50;;;;;;;15.76;61.54;102123.28;4954996;28;20674;-66
2022/06/03 01:10:49;;;;;;;6.57;4.70;;;;;;;15.70;61.53;102124.09;4942789;28;20107;-66
2022/06/03 01:13:27;;;;;;;;;;;;;;;15.76;61.53;102116.28;4966609;28;20038;-65
2022/06/03 01:16:21;;;;;;;9.60;4.68;;;;;;;15.75;61.30;102119.78;4957287;28;20397;-66
2022/06/03 01:19:01;;;;;;;7.93;4.88;;;;;;;15.69;61.72;102122.34;4957594;28;20571;-67
2022/06/03 01:21:51;;;;;;;6.30;4.53;;;;;;;15.68;61.65;102119.69;4963009;28;20073;-65
2022/06/03 01:24:46;;;;;;;6.25;4.43;;;;;;;15.70;60.86;102115.31;4946715;28;20312;-65
2022/06/03 01:27:41;;;;;;;7.55;4.57;;;;;;;15.75;61.09;102117.16;4965713;28;20293;-66
2022/06/03 01:30:13;;;;;;;;;;;;;;;15.48;61.32;102115.91;4951631;28;20116;-66
2022/06/03 01:33:02;;;;;;;6.65;4.50;;;;;;;15.59;61.24;102104.69;4961696;28;20313;-66
2022/06/03 01:36:12;;;;;;;6.57;4.20;;;;;;;15.79;60.80;102107.56;4960298;28;20065;-66
2022/06/03 01:39:06;;;;;;;7.40;4.93;;;;;;;15.61;60.80;102096.84;4955957;28;20077;-65
2022/06/03 01:41:50;;;;;;;6.90;4.55;;;;;;;15.56;60.92;102098.50;4957390;28;20041;-64
2022/06/03 01:44:30;;;;;;;6.95;4.30;;;;;;;15.35;60.89;102094.72;4954490;28;20037;-67
2022/06/03 01:47:30;;;;;;;7.53;4.60;;;;;;;15.37;60.66;102090.34;4969000;28;20054;-65
2022/06/03 01:50:26;;;;;;;6.55;4.30;;;;;;;15.61;60.27;102087.19;4959570;28;20046;-66
2022/06/03 01:53:31;;;;;;;8.10;4.50;;;;;;;15.70;60.48;102092.56;4968640;28;20388;-67
2022/06/03 01:56:36;;;;;;;7.33;4.83;;;;;;;15.67;60.06;102102.16;4962582;28;20046;-65
2022/06/03 01:59:27;;;;;;;8.65;4.70;;;;;;;15.55;60.08;102102.91;4966348;28;20199;-66
2022/06/03 02:02:20;;;;;;;6.70;4.55;;;;;;;15.40;61.01;102089.50;4967381;28;20061;-65
2022/06/03 02:04:59;;;;;;;6.75;4.40;;;;;;;15.57;60.16;102093.25;4966239;28;20099;-65
2022/06/03 02:07:53;;;;;;;6.32;4.60;;;;;;;15.41;60.61;102091.28;4962739;28;20483;-66
2022/06/03 02:10:30;;;;;;;7.00;4.55;;;;;;;15.65;59.79;102090.75;4948572;28;20390;-66
2022/06/03 02:13:07;;;;;;;6.65;4.15;;;;;;;15.62;59.81;102088.94;4964229;28;20133;-66
2022/06/03 02:16:03;;;;;;;7.72;4.70;;;;;;;15.61;60.11;102084.56;4964230;28;20030;-66
2022/06/03 02:19:04;;;;;;;6.72;4.47;;;;;;;15.53;60.16;102085.34;4965337;28;20053;-66
2022/06/03 02:21:35;;;;;;;6.18;4.50;;;;;;;15.34;60.30;102085.06;4960147;28;20046;-66
2022/06/03 02:24:13;;;;;;;5.57;4.47;;;;;;;15.55;59.80;102088.88;4958759;28;20465;-67
2022/06/03 02:27:18;;;;;;;6.70;4.45;;;;;;;15.58;59.62;102086.25;4962339;28;20069;-66
2022/06/03 02:32:48;;;;;;;7.25;4.47;;;;;;;15.50;59.79;102079.97;4963151;28;20065;-66
2022/06/03 02:35:41;;;;;;;6.85;4.25;;;;;;;15.54;59.63;102082.72;4967193;28;20061;-65
2022/06/03 02:38:07;;;;;;;7.80;4.50;;;;;;;15.41;60.19;102078.16;4954155;28;20564;-66
2022/06/03 02:40:44;;;;;;;10.70;4.50;;;;;;;15.54;59.79;102076.59;4966823;28;20119;-66
2022/06/03 02:43:47;;;;;;;7.97;4.68;;;;;;;15.44;60.26;102075.53;4972144;28;20053;-66
2022/06/03 02:46:37;;;;;;;5.53;4.28;;;;;;;15.55;59.72;102075.72;4951166;28;20246;-68
2022/06/03 02:49:13;;;;;;;6.75;4.55;;;;;;;15.47;59.83;102065.09;4959200;28;20100;-65
2022/06/03 02:52:16;;;;;;;5.85;4.30;;;;;;;15.50;59.89;102069.47;4954386;28;20049;-66
2022/06/03 02:55:13;;;;;;;6.13;4.50;;;;;;;15.31;60.33;102064.00;4962825;28;20042;-66
2022/06/03 02:57:57;;;;;;;5.20;4.18;;;;;;;15.33;60.22;102064.91;4961551;28;20053;-66
2022/06/03 03:00:37;;;;;;;6.07;4.38;;;;;;;15.28;60.24;102063.97;4935253;28;20068;-65
2022/06/03 03:03:56;;;;;;;8.13;4.40;;;;;;;15.34;60.22;102052.66;4965955;28;20302;-65
2022/06/03 03:06:52;;;;;;;6.60;4.55;;;;;;;15.39;60.10;102051.84;4916285;28;20854;-67
2022/06/03 03:09:30;;;;;;;5.60;4.38;;;;;;;15.23;60.23;102049.00;4964001;28;20045;-65
2022/06/03 03:12:31;;;;;;;6.18;4.55;;;;;;;15.13;60.72;102044.47;4966617;28;20041;-64
2022/06/03 03:15:16;;;;;;;7.15;4.75;;;;;;;15.29;59.98;102044.72;4966285;28;20462;-65
2022/06/03 03:17:44;;;;;;;8.52;4.63;;;;;;;15.21;60.23;102038.47;4960072;28;20056;-65
2022/06/03 03:20:22;;;;;;;6.70;4.90;;;;;;;15.11;60.66;102041.84;4958300;28;20050;-66
2022/06/03 03:23:16;;;;;;;7.88;4.60;;;;;;;14.96;60.81;102031.13;4962152;28;20041;-65
2022/06/03 03:26:01;;;;;;;8.93;4.90;;;;;;;15.12;60.30;102030.50;4962779;28;20111;-64
2022/06/03 03:28:45;;;;;;;8.60;4.40;;;;;;;15.12;60.40;102032.22;4965012;28;20054;-65
2022/06/03 03:31:57;;;;;;;6.78;4.70;;;;;;;15.15;60.67;102029.63;4957693;28;20541;-65
2022/06/03 03:34:55;;;;;;;6.53;4.82;;;;;;;15.02;60.45;102026.84;4960323;28;20399;-66
2022/06/03 03:37:41;;;;;;;7.53;4.35;;;;;;;15.09;60.23;102032.16;4962134;28;20072;-65
2022/06/03 03:40:25;;;;;;;8.70;4.43;;;;;;;14.93;60.76;102031.09;4959168;28;20045;-66
2022/06/03 03:42:53;;;;;;;7.57;4.95;;;;;;;14.97;60.74;102032.91;4965510;28;20104;-66
2022/06/03 03:45:30;;;;;;;6.65;4.70;;;;;;;14.90;60.83;102033.66;4965720;28;20069;-66
2022/06/03 03:48:20;;;;;;;6.18;4.43;;;;;;;14.96;60.67;102034.63;4958481;28;20041;-65
2022/06/03 03:50:46;;;;;;;6.55;4.57;;;;;;;14.90;60.88;102023.16;4958067;28;20046;-65
2022/06/03 03:53:41;;;;;;;7.05;4.60;;;;;;;14.80;60.97;102030.03;4971146;28;20527;-66
2022/06/03 03:56:43;;;;;;;5.43;4.43;;;;;;;14.93;60.90;102033.72;4955205;28;20177;-64
2022/06/03 03:59:14;;;;;;;8.15;4.95;;;;;;;14.67;61.52;102024.56;4955215;28;20049;-66
2022/06/03 04:02:01;;;;;;;6.75;4.57;;;;;;;14.67;61.51;102029.81;4966185;28;20038;-66
2022/06/03 04:04:57;;;;;;;6.25;4.55;;;;;;;14.69;61.36;102028.13;4954311;28;20049;-66
2022/06/03 04:07:49;;;;;;;6.93;4.70;;;;;;;14.83;60.95;102021.31;4965177;28;20046;-66
2022/06/03 04:10:33;;;;;;;8.35;4.57;;;;;;;14.72;60.96;102015.03;4931302;28;20406;-68
2022/06/03 04:13:13;;;;;;;6.07;4.70;;;;;;;14.81;60.86;102021.31;4968997;28;20171;-66
2022/06/03 04:16:01;;;;;;;8.20;4.70;;;;;;;14.55;61.54;102020.91;4971428;28;20300;-66
2022/06/03 04:19:04;;;;;;;7.55;4.80;;;;;;;14.82;60.82;102015.16;4956614;28;20042;-64
2022/06/03 04:21:30;;;;;;;6.78;4.60;;;;;;;14.81;60.84;102010.81;4963702;28;20561;-66
2022/06/03 04:23:56;;;;;;;6.47;4.90;;;;;;;14.78;60.86;102007.25;4966372;28;20026;-64
2022/06/03 04:26:40;;;;;;;8.95;4.60;;;;;;;14.85;60.54;102009.97;4955647;28;20129;-66
2022/06/03 04:29:35;;;;;;;7.05;4.80;;;;;;;14.96;60.38;102002.25;4957408;28;20434;-65
2022/06/03 04:32:04;;;;;;;6.50;4.70;;;;;;;15.08;60.29;102005.03;4949804;28;20767;-66
2022/06/03 04:35:00;;;;;;;10.23;4.82;;;;;;;14.81;61.07;102000.31;4965639;28;20363;-65
2022/06/03 04:38:01;;;;;;;7.85;4.97;;;;;;;15.00;60.71;102002.28;4962779;28;20129;-65
2022/06/03 04:41:10;;;;;;;8.32;4.85;;;;;;;15.17;60.25;102006.91;4966755;28;20758;-65
2022/06/03 04:44:00;;;;;;;7.47;4.70;;;;;;;15.55;59.49;102007.38;4958863;28;20231;-65
2022/06/03 04:46:50;;;;;;;6.90;4.70;;;;;;;15.86;58.10;102001.56;4959399;28;20160;-65
2022/06/03 04:49:34;;;;;;;6.40;4.60;;;;;;;16.50;56.21;102007.38;4961769;28;20116;-66
2022/06/03 04:52:41;;;;;;;7.55;4.15;;;;;;;17.69;53.14;102008.84;4936698;28;20046;-65
2022/06/03 04:55:09;;;;;;;6.38;3.97;;;;;;;18.78;49.77;102000.09;4940433;28;20111;-65
2022/06/03 04:58:16;;;;;;;6.15;4.30;;;;;;;19.69;47.71;101992.66;4962760;28;20078;-65
2022/06/03 05:00:50;;;;;;;5.68;3.97;;;;;;;20.59;44.80;101999.91;4964206;28;20054;-65
2022/06/03 05:03:21;;;;;;;7.10;3.80;;;;;;;20.58;44.13;101995.47;4965267;28;20045;-65
2022/06/03 05:05:56;;;;;;;6.00;4.40;;;;;;;19.99;45.45;101993.34;4964223;28;20064;-66
2022/06/03 05:09:11;;;;;;;6.32;4.40;;;;;;;19.89;46.11;101994.28;4950345;28;20057;-65
2022/06/03 05:12:22;;;;;;;6.38;4.55;;;;;;;19.04;47.54;101987.66;4966771;28;20053;-65
2022/06/03 05:15:07;;;;;;;5.75;4.60;;;;;;;18.47;49.49;101997.47;4961664;28;20092;-65
2022/06/03 05:17:42;;;;;;;7.57;5.10;;;;;;;18.38;49.69;102005.41;4956575;28;20057;-65
2022/06/03 05:20:43;;;;;;;7.88;5.35;;;;;;;18.01;51.03;102007.16;4952367;28;20042;-64
2022/06/03 05:23:29;;;;;;;6.97;5.20;;;;;;;17.84;51.31;101996.59;4963228;28;20053;-65
2022/06/03 05:26:13;;;;;;;8.80;5.18;;;;;;;17.39;53.04;102006.97;4963868;28;20040;-65
2022/06/03 05:29:16;;;;;;;7.10;5.60;;;;;;;17.43;53.22;101995.59;4960827;28;20458;-66
2022/06/03 05:32:29;;;;;;;9.40;5.70;;;;;;;17.40;53.26;101996.44;4963703;28;20069;-66
2022/06/03 05:35:27;;;;;;;8.30;5.78;;;;;;;17.37;53.08;101996.47;4964161;28;20065;-65
2022/06/03 05:38:12;;;;;;;10.00;5.85;;;;;;;17.46;52.42;101992.94;4962635;28;20298;-65
2022/06/03 05:40:37;;;;;;;;;;;;;;;17.48;52.76;101985.06;4960744;28;20327;-66
2022/06/03 05:43:14;;;;;;;8.55;5.65;;;;;;;17.50;53.57;101989.47;4965376;28;19928;-65
2022/06/03 05:45:52;;;;;;;9.18;5.68;;;;;;;17.73;52.14;101986.91;4963446;28;20484;-63
2022/06/03 05:48:53;;;;;;;8.50;5.95;;;;;;;17.84;52.42;101988.69;4946527;28;20992;-66
2022/06/03 05:51:40;;;;;;;7.05;5.50;;;;;;;18.93;48.62;101994.75;4961254;28;20638;-68
2022/06/03 05:54:33;;;;;;;8.63;5.07;;;;;;;20.59;45.13;101984.00;4951183;28;20049;-66
2022/06/03 05:57:06;;;;;;;7.28;4.80;;;;;;;22.24;41.12;101979.13;4955321;28;20038;-66
2022/06/03 06:00:00;;;;;;;7.70;4.72;;;;;;;22.55;39.73;101992.72;4964938;28;20434;-65
2022/06/03 06:02:57;;;;;;;7.32;4.50;;;;;;;23.57;38.63;101989.78;4939514;28;20606;-66
2022/06/03 06:05:45;;;;;;;7.78;4.55;;;;;;;23.74;38.04;101985.84;4958942;28;20432;-67
2022/06/03 06:08:22;;;;;;;7.22;4.68;;;;;;;23.52;37.61;101984.59;4948118;28;20377;-65
2022/06/03 06:11:20;;;;;;;7.72;4.50;;;;;;;24.16;36.02;101985.69;4961412;28;20041;-65
2022/06/03 06:14:15;;;;;;;5.43;4.63;;;;;;;24.42;35.36;101993.06;4961382;28;20077;-66
2022/06/03 06:16:45;;;;;;;6.18;4.60;;;;;;;24.57;34.97;102006.00;4952896;28;20099;-64
2022/06/03 06:19:39;;;;;;;7.18;3.95;;;;;;;24.45;35.84;102004.53;4962010;28;20413;-65
2022/06/03 06:22:30;;;;;;;7.70;3.85;;;;;;;25.01;33.90;101996.78;4952282;28;20501;-66
2022/06/03 06:24:58;;;;;;;6.55;4.00;;;;;;;24.59;35.40;102004.13;4957255;28;20225;-65
2022/06/03 06:27:30;;;;;;;8.00;4.25;;;;;;;24.30;36.30;102007.56;4964247;28;20046;-65
2022/06/03 06:30:12;;;;;;;7.80;4.70;;;;;;;23.83;36.17;102006.06;4960020;28;20168;-66
2022/06/03 06:32:43;;;;;;;5.47;4.53;;;;;;;24.51;35.46;102007.03;4966700;28;20053;-66
2022/06/03 06:35:12;;;;;;;4.88;4.28;;;;;;;25.30;32.93;101994.16;4962939;28;20626;-65
2022/06/03 06:37:57;;;;;;;6.20;4.13;;;;;;;25.09;33.61;102004.56;4966052;28;20100;-65
2022/06/03 06:40:32;;;;;;;5.50;4.05;;;;;;;25.23;33.68;102000.59;4959565;28;20053;-66
2022/06/03 06:43:25;;;;;;;6.70;4.10;;;;;;;26.21;31.30;102001.06;4967598;28;20053;-65
2022/06/03 06:46:36;;;;;;;5.88;4.20;;;;;;;26.57;32.99;101990.91;4968957;28;20076;-67
2022/06/03 06:49:17;;;;;;;5.15;4.03;;;;;;;26.65;31.44;101983.50;4968495;28;20037;-65
2022/06/03 06:51:48;;;;;;;5.90;4.20;;;;;;;26.79;30.59;101983.84;4957058;28;20603;-65
2022/06/03 06:54:45;;;;;;;7.45;4.13;;;;;;;26.67;31.39;101987.84;4959666;28;20730;-66
2022/06/03 06:57:21;;;;;;;4.95;3.95;;;;;;;26.82;32.33;101985.56;4968276;28;20249;-65
2022/06/03 06:59:59;;;;;;;6.50;4.15;;;;;;;26.79;31.91;101983.84;4965757;28;20057;-65
2022/06/03 07:02:30;;;;;;;6.20;4.13;;;;;;;25.84;33.19;101982.69;4956883;28;20059;-66
2022/06/03 07:05:04;;;;;;;5.07;4.40;;;;;;;26.71;32.12;101977.94;4959372;28;20349;-65
2022/06/03 07:07:51;;;;;;;6.78;4.40;;;;;;;26.44;32.13;101976.22;4967173;28;20474;-65
2022/06/03 07:10:24;;;;;;;6.18;3.90;;;;;;;27.28;30.61;101972.22;4954787;28;20132;-66
2022/06/03 07:12:55;;;;;;;5.95;4.10;;;;;;;27.30;30.56;101977.53;4967222;28;20106;-66
2022/06/03 07:15:25;;;;;;;6.78;3.85;;;;;;;27.38;31.81;101962.91;4963997;28;20455;-65
2022/06/03 07:21:14;;;;;;;5.65;4.07;;;;;;;27.10;31.67;101966.69;4961865;28;20064;-65
2022/06/03 07:23:49;;;;;;;5.75;4.00;;;;;;;27.70;30.87;101969.66;4964213;28;20049;-67
2022/06/03 07:26:27;;;;;;;5.97;4.00;;;;;;;27.91;32.16;101973.28;4957226;28;20049;-66
2022/06/03 07:29:12;;;;;;;7.53;4.00;;;;;;;27.17;30.52;101977.13;4961673;28;20583;-65
2022/06/03 07:31:56;;;;;;;5.95;4.03;;;;;;;27.31;31.52;101985.50;4965041;28;20069;-67
2022/06/03 07:34:29;;;;;;;7.03;4.03;;;;;;;27.09;31.72;101972.97;4956079;28;20139;-66
2022/06/03 07:36:54;;;;;;;6.43;4.03;;;;;;;28.04;32.72;101977.22;4965627;28;20050;-65
2022/06/03 07:39:57;;;;;;;6.45;4.60;;;;;;;28.46;28.62;101981.69;4964734;28;20088;-67
2022/06/03 07:42:31;;;;;;;7.85;4.53;;;;;;;27.40;30.64;101974.41;4916746;28;20061;-66
2022/06/03 07:45:27;;;;;;;5.00;4.00;;;;;;;27.79;32.28;101972.00;4966790;28;20045;-66
2022/06/03 07:48:00;;;;;;;6.32;4.18;;;;;;;28.36;28.52;101972.31;4949455;28;20104;-65
2022/06/03 07:50:28;;;;;;;6.95;4.10;;;;;;;29.01;30.90;101972.09;4959557;28;20145;-65
2022/06/03 07:53:28;;;;;;;5.18;4.10;;;;;;;28.29;28.97;101977.06;4967843;28;20204;-64
2022/06/03 07:55:57;;;;;;;6.45;4.47;;;;;;;27.48;30.54;101976.81;4961907;28;20041;-66
2022/06/03 07:58:25;;;;;;;5.70;4.10;;;;;;;28.31;31.10;101968.94;4962548;28;20302;-66
2022/06/03 08:00:51;;;;;;;6.85;4.30;;;;;;;27.35;31.22;101967.50;4963516;28;20458;-65
2022/06/03 08:03:25;;;;;;;7.50;4.20;;;;;;;28.67;29.63;101964.63;4965799;28;20871;-66
2022/06/03 08:06:02;;;;;;;7.60;3.92;;;;;;;28.30;29.76;101962.69;4960817;28;20076;-65
2022/06/03 08:11:34;;;;;;;5.32;4.45;;;;;;;27.72;30.09;101959.78;4946976;28;20030;-65
2022/06/03 08:14:02;;;;;;;6.00;3.72;;;;;;;28.52;29.95;101952.78;4952949;28;20046;-65
2022/06/03 08:16:40;;;;;;;5.65;4.15;;;;;;;28.77;29.35;101941.88;4944013;28;20113;-66
2022/06/03 08:19:09;;;;;;;7.35;4.10;;;;;;;28.42;30.42;101935.34;4963912;28;20560;-66
2022/06/03 08:21:35;;;;;;;4.57;4.07;;;;;;;28.81;28.49;101934.53;4963168;28;20054;-65
2022/06/03 08:24:03;;;;;;;5.00;4.10;;;;;;;28.07;29.44;101933.28;4952575;28;20145;-66
2022/06/03 08:26:31;;;;;;;5.65;4.18;;;;;;;28.07;32.10;101936.84;4962634;28;20712;-66
2022/06/03 08:29:19;;;;;;;7.88;4.18;;;;;;;28.05;30.17;101935.19;4963164;28;20046;-66
2022/06/03 08:31:45;;;;;;;5.20;3.90;;;;;;;28.25;30.67;101928.03;4959865;28;20076;-67
2022/06/03 08:34:21;;;;;;;5.15;3.80;;;;;;;29.12;28.92;101923.25;4932598;28;20401;-66
2022/06/03 08:36:46;;;;;;;7.10;4.50;;;;;;;28.09;30.53;101923.38;4967593;28;20235;-66
2022/06/03 08:39:20;;;;;;;6.53;4.30;;;;;;;28.01;29.69;101920.16;4958516;28;20061;-67
2022/06/03 08:41:57;;;;;;;5.38;3.97;;;;;;;27.80;30.16;101928.19;4959514;28;20049;-66
2022/06/03 08:44:26;;;;;;;6.00;4.68;;;;;;;26.87;31.33;101922.03;4947494;28;20883;-65
2022/06/03 08:47:16;;;;;;;7.25;4.85;;;;;;;25.46;33.64;101919.78;4958875;28;20129;-66
2022/06/03 08:49:51;;;;;;;5.40;3.95;;;;;;;26.20;34.03;101925.34;4948544;28;20042;-65
2022/06/03 08:52:22;;;;;;;6.25;4.20;;;;;;;25.51;33.63;101911.63;4954296;28;20681;-65
2022/06/03 08:54:55;;;;;;;8.23;4.40;;;;;;;25.42;34.76;101911.00;4962446;28;20497;-66
2022/06/03 08:57:28;;;;;;;6.27;4.50;;;;;;;25.72;36.40;101910.97;4965487;28;20042;-65
2022/06/03 09:00:02;;;;;;;8.87;4.83;;;;;;;25.62;34.97;101915.72;4955980;28;20404;-64
2022/06/03 09:02:33;;;;;;;14.45;4.78;;;;;;;24.61;35.12;101917.88;4964045;28;20665;-66
2022/06/03 09:05:02;;;;;;;8.60;4.38;;;;;;;24.87;35.76;101917.13;4957298;28;20339;-66
2022/06/03 09:07:36;;;;;;;7.57;4.28;;;;;;;24.46;34.48;101914.75;4962937;28;20111;-65
2022/06/03 09:10:24;;;;;;;7.35;3.97;;;;;;;24.54;35.67;101915.41;4957971;28;20150;-65
2022/06/03 09:13:24;;;;;;;8.85;4.10;;;;;;;24.70;35.08;101915.88;4969707;28;20517;-66
2022/06/03 09:15:50;;;;;;;4.60;3.70;;;;;;;24.84;35.68;101919.00;4964458;28;20497;-66
2022/06/03 09:18:23;;;;;;;6.93;4.40;;;;;;;24.61;36.47;101919.66;4935768;28;20087;-65
2022/06/03 09:20:56;;;;;;;6.93;4.50;;;;;;;24.88;35.14;101915.34;4951107;28;20311;-64
2022/06/03 09:23:25;;;;;;;6.35;3.90;;;;;;;25.29;35.25;101909.66;4962456;28;20650;-64
2022/06/03 09:25:57;;;;;;;7.38;4.32;;;;;;;25.29;34.90;101906.09;4947625;28;20133;-66
2022/06/03 09:28:29;;;;;;;4.38;3.65;;;;;;;25.47;35.43;101916.19;4959329;28;20489;-66
2022/06/03 09:30:57;;;;;;;7.72;4.25;;;;;;;25.74;33.93;101907.31;4954207;28;20468;-66
2022/06/03 09:33:25;;;;;;;5.00;3.67;;;;;;;25.74;35.10;101912.66;4957089;28;20802;-63
2022/06/03 09:35:56;;;;;;;6.35;3.50;;;;;;;25.97;35.61;101911.03;4966321;28;20075;-65
2022/06/03 09:38:26;;;;;;;6.78;4.10;;;;;;;25.85;34.94;101917.66;4953302;28;20050;-65
2022/06/03 09:40:57;;;;;;;6.85;4.20;;;;;;;25.54;32.80;101904.41;4962976;28;20533;-66
2022/06/03 09:43:31;;;;;;;5.95;3.70;;;;;;;25.75;32.67;101900.16;4948621;28;20410;-64
2022/06/03 09:45:59;;;;;;;6.20;4.13;;;;;;;25.64;32.28;101902.31;4960681;28;20049;-63
2022/06/03 09:48:32;;;;;;;8.00;4.07;;;;;;;24.86;35.76;101927.84;4953853;28;20553;-65
2022/06/03 09:51:02;;;;;;;4.15;3.58;;;;;;;24.76;32.79;101916.56;4945334;28;20488;-65
2022/06/03 09:53:31;;;;;;;5.50;3.20;;;;;;;25.17;35.74;101914.50;4961954;28;20045;-63
2022/06/03 09:56:02;;;;;;;4.75;3.38;;;;;;;25.29;34.18;101912.31;4961036;28;20138;-65
2022/06/03 09:58:31;;;;;;;8.20;3.80;;;;;;;25.37;33.25;101923.59;4956052;28;20046;-65
2022/06/03 10:00:58;;;;;;;4.82;3.70;;;;;;;25.52;34.55;101919.59;4955871;28;20463;-67
2022/06/03 10:03:25;;;;;;;5.43;3.70;;;;;;;25.73;34.24;101916.28;4961773;28;20435;-65
2022/06/03 10:05:57;;;;;;;7.78;3.53;;;;;;;25.72;34.37;101916.31;4963320;28;21166;-64
2022/06/03 10:12:48;;;;;;;7.10;3.88;;;;;;;25.98;34.41;101919.00;4957070;28;20255;-65
2022/06/03 10:14:01;;;;;;;4.50;3.30;;;;;;;25.52;33.26;101895.56;4958440;28;20151;-68
2022/06/03 10:16:28;;;;;;;6.32;3.50;;;;;;;25.68;33.46;101907.50;4962833;28;20159;-65
2022/06/03 10:18:56;;;;;;;4.70;3.72;;;;;;;25.84;33.63;101898.09;4955682;28;20765;-66
2022/06/03 10:21:21;;;;;;;5.53;3.92;;;;;;;24.92;33.49;101909.91;4950489;28;20049;-66
2022/06/03 10:24:00;;;;;;;5.20;3.50;;;;;;;25.29;33.01;101906.09;4955454;28;20045;-65
2022/06/03 10:26:43;;;;;;;9.25;3.90;;;;;;;25.19;36.15;101901.97;4964431;28;20137;-66
2022/06/03 10:29:21;;;;;;;5.57;3.63;;;;;;;25.65;33.90;101899.63;4957731;28;20568;-65
2022/06/03 10:31:50;;;;;;;4.78;3.40;;;;;;;25.88;34.53;101889.94;4959867;28;20042;-67
2022/06/03 10:34:22;;;;;;;4.93;3.25;;;;;;;25.87;34.99;101897.09;4952814;28;20148;-66
2022/06/03 10:36:50;;;;;;;5.28;3.10;;;;;;;25.69;34.05;101885.22;4953705;28;20390;-66
2022/06/03 10:39:18;;;;;;;4.32;3.10;;;;;;;26.02;32.89;101887.69;4951530;28;20045;-65
2022/06/03 10:41:46;;;;;;;6.15;3.40;;;;;;;25.68;32.96;101877.25;4964534;28;20085;-66
2022/06/03 10:44:33;;;;;;;5.35;3.00;;;;;;;26.01;34.12;101884.13;4957314;28;20042;-64
2022/06/03 10:47:13;;;;;;;4.30;2.70;;;;;;;26.08;33.97;101885.66;4960474;28;20045;-65
2022/06/03 10:49:50;;;;;;;4.57;2.60;;;;;;;25.54;32.32;101884.84;4944794;28;20807;-65
2022/06/03 11:01:07;;;;;;;5.75;3.10;;;;;;;25.71;32.47;101878.03;4968492;28;20052;-65
2022/06/03 11:03:33;;;;;;;;;;;;;;;25.78;35.46;101884.94;4965487;28;20046;-66
2022/06/03 11:06:13;;;;;;;3.97;2.80;;;;;;;25.81;32.19;101871.44;4934053;28;20882;-65
2022/06/03 11:08:59;;;;;;;4.47;2.80;;;;;;;26.23;32.85;101876.22;4961003;28;20046;-67
2022/06/03 11:11:39;;;;;;;4.63;3.25;;;;;;;25.82;33.62;101866.97;4960113;28;20443;-67
2022/06/03 11:14:39;;;;;;;7.82;3.42;;;;;;;25.59;33.13;101862.44;4954860;28;20050;-67
2022/06/03 11:17:07;;;;;;;5.07;3.28;;;;;;;25.69;33.31;101871.00;4966947;28;20134;-66
2022/06/03 11:19:45;;;;;;;4.95;3.28;;;;;;;26.03;31.96;101857.38;4959767;28;20061;-66
2022/06/03 11:22:32;;;;;;;6.18;3.67;;;;;;;25.81;32.76;101858.09;4959806;28;20064;-67
2022/06/03 11:25:21;;;;;;;5.28;3.28;;;;;;;25.96;33.22;101866.53;4963486;28;20042;-67
2022/06/03 11:28:02;;;;;;;4.90;3.28;;;;;;;25.95;34.13;101864.75;4960475;28;20042;-67
2022/06/03 11:30:50;;;;;;;4.93;3.13;;;;;;;26.12;32.31;101862.38;4960988;28;20513;-64
2022/06/03 11:33:22;;;;;;;5.47;3.85;;;;;;;26.25;32.85;101861.91;4965699;28;20452;-66
2022/06/03 11:35:57;;;;;;;4.80;3.30;;;;;;;26.49;31.19;101861.94;4965541;28;20111;-65
2022/06/03 11:38:37;;;;;;;6.32;3.38;;;;;;;26.46;32.02;101862.06;4948236;28;20070;-65
2022/06/03 11:41:28;;;;;;;4.47;3.40;;;;;;;26.38;32.38;101858.78;4948877;28;20041;-66
2022/06/03 11:44:08;;;;;;;5.20;3.33;;;;;;;26.55;31.55;101867.06;4959314;28;20052;-65
2022/06/03 11:46:40;;;;;;;4.80;3.35;;;;;;;26.73;32.80;101858.34;4966650;28;20081;-65
2022/06/03 11:49:06;;;;;;;5.93;4.00;;;;;;;25.88;31.79;101858.75;4955283;28;20524;-65
2022/06/03 11:51:33;;;;;;;5.07;3.35;;;;;;;26.10;32.53;101869.59;4962493;28;20470;-66
2022/06/03 11:54:00;;;;;;;4.28;3.22;;;;;;;25.99;33.06;101866.41;4958523;28;20124;-65
2022/06/03 11:56:30;;;;;;;5.30;3.78;;;;;;;26.26;33.39;101865.47;4958761;28;20085;-65
2022/06/03 11:59:02;;;;;;;4.55;2.95;;;;;;;26.52;33.36;101862.72;4960040;28;20041;-65
2022/06/03 12:01:49;;;;;;;5.57;3.28;;;;;;;26.63;32.82;101868.53;4954919;28;20645;-66
2022/06/03 12:04:26;;;;;;;5.10;3.40;;;;;;;26.67;32.79;101864.81;4948478;28;20653;-64
2022/06/03 12:07:22;;;;;;;6.60;3.28;;;;;;;26.79;33.05;101858.09;4959406;28;20181;-66
2022/06/03 12:09:50;;;;;;;6.28;3.15;;;;;;;27.19;31.73;101872.66;4953496;28;20057;-66
2022/06/03 12:15:34;;;;;;;5.20;3.70;;;;;;;26.58;32.68;101850.91;4950193;28;20037;-66
2022/06/03 12:18:06;;;;;;;4.88;3.00;;;;;;;26.73;33.48;101857.47;4950068;28;20565;-65
2022/06/03 12:20:31;;;;;;;5.22;2.90;;;;;;;26.25;32.72;101861.91;4963630;28;20046;-66
2022/06/03 12:23:11;;;;;;;6.05;3.40;;;;;;;26.20;33.96;101868.31;4962474;28;20489;-66
2022/06/03 12:25:37;;;;;;;4.00;3.45;;;;;;;26.07;32.89;101849.19;4960886;28;20124;-66
2022/06/03 12:28:05;;;;;;;3.85;2.75;;;;;;;26.96;32.61;101857.47;4947295;28;20495;-65
2022/06/03 12:30:41;;;;;;;7.57;3.25;;;;;;;27.02;30.76;101854.56;4946026;28;20077;-66
2022/06/03 12:33:19;;;;;;;6.40;3.60;;;;;;;26.15;32.48;101862.28;4959503;28;20057;-66
2022/06/03 12:35:57;;;;;;;4.32;3.28;;;;;;;26.54;32.85;101860.84;4952656;28;20050;-66
2022/06/03 12:38:23;;;;;;;4.18;3.58;;;;;;;26.08;31.79;101850.06;4945807;28;20046;-66
2022/06/03 12:40:59;;;;;;;4.43;3.20;;;;;;;26.68;31.88;101849.63;4952907;28;20501;-66
2022/06/03 12:43:46;;;;;;;3.33;2.83;;;;;;;26.85;31.97;101852.53;4956034;28;20073;-65
2022/06/03 12:46:44;;;;;;;4.38;3.40;;;;;;;26.69;30.99;101850.50;4940183;28;20603;-65
2022/06/03 12:49:44;;;;;;;4.15;3.20;;;;;;;26.69;32.55;101850.50;4933414;28;20704;-65
2022/06/03 12:52:33;;;;;;;7.82;3.15;;;;;;;26.88;32.49;101852.44;4942926;28;20054;-66
2022/06/03 12:54:58;;;;;;;6.05;3.38;;;;;;;26.78;31.81;101856.34;4957883;28;20049;-66
2022/06/03 12:57:39;;;;;;;5.97;3.58;;;;;;;26.76;31.72;101857.38;4944637;28;20088;-66